createdAt,value
2019-05-29T00:02:24.704Z,100894.92
2019-05-29T00:04:56.031Z,100893.00
2019-05-29T00:07:27.299Z,100891.60
2019-05-29T00:09:58.615Z,100892.72
2019-05-29T00:12:29.869Z,100898.80
2019-05-29T00:15:01.200Z,100896.57
2019-05-29T00:17:32.486Z,100897.67
2019-05-29T00:20:04.365Z,100896.57
2019-05-29T00:22:35.666Z,100897.41
2019-05-29T00:25:08.521Z,100899.59
2019-05-29T00:27:39.875Z,100900.42
2019-05-29T00:30:11.207Z,100896.27
2019-05-29T00:32:42.482Z,100892.66
2019-05-29T00:35:14.348Z,100893.20
2019-05-29T00:37:45.761Z,100888.20
2019-05-29T00:40:17.222Z,100890.97
2019-05-29T00:42:49.456Z,100895.09
2019-05-29T00:45:20.993Z,100889.84
2019-05-29T00:47:52.170Z,100886.45
2019-05-29T00:50:23.572Z,100884.50
2019-05-29T00:52:54.842Z,100878.17
2019-05-29T00:55:26.074Z,100883.69
2019-05-29T00:57:57.549Z,100877.61
2019-05-29T01:00:28.758Z,100868.73
2019-05-29T01:03:00.431Z,100870.69
2019-05-29T01:05:31.757Z,100869.31
2019-05-29T01:08:03.052Z,100864.59
2019-05-29T01:10:34.385Z,100863.77
2019-05-29T01:13:05.683Z,100873.16
2019-05-29T01:15:36.930Z,100871.83
2019-05-29T01:18:08.234Z,100871.51
2019-05-29T01:20:39.466Z,100881.48
2019-05-29T01:23:10.716Z,100875.38
2019-05-29T01:25:41.864Z,100874.70
2019-05-29T01:28:13.144Z,100874.42
2019-05-29T01:30:44.476Z,100884.90
2019-05-29T01:33:18.541Z,100884.07
2019-05-29T01:35:48.803Z,100877.20
2019-05-29T01:38:19.971Z,100873.97
2019-05-29T01:40:52.582Z,100886.03
2019-05-29T01:43:24.712Z,100881.61
2019-05-29T01:45:55.865Z,100879.69
2019-05-29T01:48:27.820Z,100890.16
2019-05-29T01:50:59.259Z,100887.14
2019-05-29T01:53:30.548Z,100892.02
2019-05-29T01:56:01.872Z,100895.60
2019-05-29T01:58:33.159Z,100899.73
2019-05-29T02:01:04.524Z,100898.86
2019-05-29T02:03:35.791Z,100900.83
2019-05-29T02:06:07.107Z,100903.61
2019-05-29T02:08:38.393Z,100909.95
2019-05-29T02:11:09.679Z,100906.34
2019-05-29T02:13:40.872Z,100908.37
2019-05-29T02:16:12.238Z,100916.36
2019-05-29T02:18:43.542Z,100912.49
2019-05-29T02:21:15.925Z,100918.02
2019-05-29T02:23:47.186Z,100920.45
2019-05-29T02:26:18.436Z,100919.94
2019-05-29T02:28:49.653Z,100923.28
2019-05-29T02:31:21.994Z,100921.66
2019-05-29T02:33:53.977Z,100920.58
2019-05-29T02:36:27.140Z,100911.52
2019-05-29T02:38:58.541Z,100912.66
2019-05-29T02:41:29.991Z,100905.47
2019-05-29T02:44:02.232Z,100906.28
2019-05-29T02:46:33.516Z,100909.10
2019-05-29T02:49:04.927Z,100913.86
2019-05-29T02:51:36.345Z,100910.45
2019-05-29T02:54:07.535Z,100908.81
2019-05-29T02:56:42.401Z,100912.48
2019-05-29T02:59:11.850Z,100916.08
2019-05-29T03:01:43.231Z,100921.36
2019-05-29T03:04:14.642Z,100918.86
2019-05-29T03:06:45.981Z,100925.78
2019-05-29T03:09:17.259Z,100924.97
2019-05-29T03:11:48.566Z,100921.69
2019-05-29T03:14:19.898Z,100915.88
2019-05-29T03:16:51.149Z,100924.45
2019-05-29T03:19:23.811Z,100922.82
2019-05-29T03:21:55.127Z,100920.88
2019-05-29T03:24:26.715Z,100915.35
2019-05-29T03:26:59.479Z,100917.86
2019-05-29T03:29:31.975Z,100920.36
2019-05-29T03:32:03.491Z,100923.93
2019-05-29T03:34:42.382Z,100923.38
2019-05-29T03:37:07.686Z,100918.41
2019-05-29T03:39:38.831Z,100921.19
2019-05-29T03:42:10.155Z,100922.28
2019-05-29T03:44:42.357Z,100924.79
2019-05-29T03:47:13.709Z,100915.38
2019-05-29T03:49:44.994Z,100916.78
2019-05-29T03:52:16.412Z,100901.60
2019-05-29T03:54:47.568Z,100913.48
2019-05-29T03:57:18.831Z,100908.78
2019-05-29T03:59:50.000Z,100912.63
2019-05-29T04:02:21.347Z,100912.34
2019-05-29T04:04:52.522Z,100915.09
2019-05-29T04:07:23.755Z,100922.01
2019-05-29T04:09:55.030Z,100921.17
2019-05-29T04:12:26.938Z,100920.05
2019-05-29T04:14:59.125Z,100910.58
2019-05-29T04:17:33.689Z,100907.22
2019-05-29T04:20:06.531Z,100920.70
2019-05-29T04:22:43.569Z,100921.86
2019-05-29T04:25:14.841Z,100920.13
2019-05-29T04:27:49.110Z,100921.45
2019-05-29T04:30:20.500Z,100926.30
2019-05-29T04:32:51.875Z,100925.16
2019-05-29T04:35:23.192Z,100926.72
2019-05-29T04:37:54.449Z,100933.27
2019-05-29T04:40:25.760Z,100937.38
2019-05-29T04:42:57.396Z,100937.59
2019-05-29T04:45:30.858Z,100942.31
2019-05-29T04:48:02.272Z,100938.39
2019-05-29T04:50:35.728Z,100949.19
2019-05-29T04:53:06.605Z,100942.39
2019-05-29T04:55:38.943Z,100945.74
2019-05-29T04:58:10.218Z,100941.52
2019-05-29T05:00:57.785Z,100936.50
2019-05-29T05:03:14.480Z,100933.24
2019-05-29T05:05:45.800Z,100934.06
2019-05-29T05:08:17.185Z,100932.03
2019-05-29T05:10:48.509Z,100936.60
2019-05-29T05:13:20.339Z,100941.16
2019-05-29T05:15:53.492Z,100941.92
2019-05-29T05:18:24.730Z,100944.06
2019-05-29T05:20:56.026Z,100938.23
2019-05-29T05:23:27.270Z,100943.13
2019-05-29T05:25:58.549Z,100955.45
2019-05-29T05:28:30.398Z,100954.28
2019-05-29T05:31:01.801Z,100950.77
2019-05-29T05:33:33.100Z,100954.84
2019-05-29T05:36:04.330Z,100948.23
2019-05-29T05:38:36.703Z,100951.35
2019-05-29T05:41:08.039Z,100945.79
2019-05-29T05:43:39.284Z,100942.41
2019-05-29T05:46:11.415Z,100953.81
2019-05-29T05:48:42.738Z,100948.97
2019-05-29T05:51:14.057Z,100942.80
2019-05-29T05:53:45.440Z,100935.45
2019-05-29T05:56:16.696Z,100942.88
2019-05-29T05:58:48.031Z,100947.72
2019-05-29T06:01:19.339Z,100958.39
2019-05-29T06:03:50.699Z,100956.58
2019-05-29T06:06:22.002Z,100948.89
2019-05-29T06:08:53.250Z,100957.14
2019-05-29T06:11:24.468Z,100956.22
2019-05-29T06:13:55.812Z,100953.55
2019-05-29T06:16:27.098Z,100956.84
2019-05-29T06:18:58.456Z,100966.97
2019-05-29T06:21:29.770Z,100971.14
2019-05-29T06:24:01.202Z,100978.66
2019-05-29T06:26:32.821Z,100989.06
2019-05-29T06:29:04.404Z,100979.59
2019-05-29T06:31:35.765Z,100977.30
2019-05-29T06:34:07.506Z,100980.80
2019-05-29T06:36:39.635Z,100983.34
2019-05-29T06:39:10.955Z,100999.84
2019-05-29T06:41:42.176Z,100988.71
2019-05-29T06:44:13.542Z,100985.50
2019-05-29T06:46:45.703Z,100995.28
2019-05-29T06:49:17.210Z,100985.31
2019-05-29T06:51:48.465Z,100979.58
2019-05-29T06:54:20.009Z,100988.22
2019-05-29T06:56:51.384Z,100990.23
2019-05-29T06:59:22.762Z,100983.10
2019-05-29T07:01:53.965Z,100975.87
2019-05-29T07:04:25.327Z,100975.46
2019-05-29T07:06:56.581Z,100983.59
2019-05-29T07:09:29.683Z,100982.33
2019-05-29T07:12:01.044Z,100970.61
2019-05-29T07:14:32.447Z,100976.14
2019-05-29T07:17:03.748Z,100968.27
2019-05-29T07:19:52.468Z,100978.61
2019-05-29T07:22:11.014Z,100980.64
2019-05-29T07:24:43.453Z,100980.79
2019-05-29T07:27:19.302Z,100968.14
2019-05-29T07:29:50.872Z,100978.53
2019-05-29T07:32:22.898Z,100962.50
2019-05-29T07:35:03.123Z,100959.36
2019-05-29T07:37:27.444Z,100964.90
2019-05-29T07:40:00.115Z,100962.11
2019-05-29T07:42:33.062Z,100957.34
2019-05-29T07:45:11.013Z,100948.61
2019-05-29T07:47:46.762Z,100938.49
2019-05-29T07:50:22.992Z,100937.44
2019-05-29T07:52:54.655Z,100950.13
2019-05-29T07:55:26.199Z,100939.47
2019-05-29T07:57:57.576Z,100934.47
2019-05-29T08:00:35.861Z,100933.69
2019-05-29T08:03:04.992Z,100936.02
2019-05-29T08:05:36.304Z,100929.38
2019-05-29T08:08:09.660Z,100932.16
2019-05-29T08:10:45.509Z,100927.82
2019-05-29T08:13:16.795Z,100932.26
2019-05-29T08:15:58.473Z,100927.86
2019-05-29T08:18:22.151Z,100937.02
2019-05-29T08:20:53.703Z,100936.55
2019-05-29T08:23:25.444Z,100932.75
2019-05-29T08:25:56.896Z,100936.16
2019-05-29T08:28:28.365Z,100939.39
2019-05-29T08:31:02.309Z,100936.42
2019-05-29T08:33:35.874Z,100938.72
2019-05-29T08:36:07.721Z,100943.23
2019-05-29T08:38:42.493Z,100925.45
2019-05-29T08:41:13.616Z,100935.92
2019-05-29T08:43:46.873Z,100927.06
2019-05-29T08:46:18.776Z,100938.89
2019-05-29T08:48:50.206Z,100941.52
2019-05-29T08:51:21.650Z,100943.48
2019-05-29T08:53:54.665Z,100936.87
2019-05-29T08:56:27.830Z,100937.80
2019-05-29T08:58:59.146Z,100930.41
2019-05-29T09:01:31.083Z,100918.01
2019-05-29T09:04:02.438Z,100923.19
2019-05-29T09:06:34.627Z,100923.09
2019-05-29T09:09:08.144Z,100913.48
2019-05-29T09:11:39.739Z,100922.52
2019-05-29T09:14:13.895Z,100913.97
2019-05-29T09:16:46.299Z,100915.63
2019-05-29T09:19:21.096Z,100908.91
2019-05-29T09:21:54.221Z,100913.59
2019-05-29T09:24:25.600Z,100914.10
2019-05-29T09:26:57.731Z,100905.17
2019-05-29T09:29:29.765Z,100907.63
2019-05-29T09:32:01.815Z,100895.42
2019-05-29T09:34:33.601Z,100896.30
2019-05-29T09:37:06.300Z,100889.36
2019-05-29T09:39:39.752Z,100899.36
2019-05-29T09:42:12.366Z,100889.16
2019-05-29T09:44:44.084Z,100898.77
2019-05-29T09:47:16.939Z,100889.38
2019-05-29T09:49:50.687Z,100896.02
2019-05-29T09:52:23.973Z,100897.50
2019-05-29T09:54:56.181Z,100889.01
2019-05-29T09:57:28.263Z,100885.28
2019-05-29T10:00:02.060Z,100872.86
2019-05-29T10:02:33.045Z,100871.50
2019-05-29T10:05:07.141Z,100884.98
2019-05-29T10:07:40.046Z,100891.32
2019-05-29T10:10:13.196Z,100871.79
2019-05-29T10:12:44.710Z,100876.42
2019-05-29T10:15:16.762Z,100873.07
2019-05-29T10:17:48.048Z,100869.11
2019-05-29T10:20:19.882Z,100871.33
2019-05-29T10:22:51.312Z,100871.78
2019-05-29T10:25:22.963Z,100866.42
2019-05-29T10:27:54.530Z,100861.70
2019-05-29T10:30:26.572Z,100858.02
2019-05-29T10:32:58.070Z,100853.33
2019-05-29T10:35:30.348Z,100846.53
2019-05-29T10:38:04.173Z,100840.25
2019-05-29T10:40:36.363Z,100842.98
2019-05-29T10:43:08.502Z,100833.92
2019-05-29T10:45:40.231Z,100820.27
2019-05-29T10:48:12.787Z,100822.65
2019-05-29T10:50:47.780Z,100815.31
2019-05-29T10:53:17.442Z,100829.27
2019-05-29T10:55:48.704Z,100818.25
2019-05-29T10:58:20.054Z,100814.23
2019-05-29T11:00:51.379Z,100801.02
2019-05-29T11:03:22.646Z,100795.05
2019-05-29T11:05:57.868Z,100791.41
2019-05-29T11:08:38.034Z,100774.66
2019-05-29T11:11:11.395Z,100750.80
2019-05-29T11:13:44.861Z,100756.37
2019-05-29T11:16:17.158Z,100747.59
2019-05-29T11:18:57.731Z,100745.63
2019-05-29T11:21:36.208Z,100739.53
2019-05-29T11:24:10.588Z,100750.80
2019-05-29T11:26:41.916Z,100748.92
2019-05-29T11:29:15.542Z,100744.61
2019-05-29T11:31:46.857Z,100749.04
2019-05-29T11:34:18.223Z,100740.39
2019-05-29T11:36:49.966Z,100730.67
2019-05-29T11:39:21.645Z,100739.10
2019-05-29T11:41:52.930Z,100734.51
2019-05-29T11:44:25.978Z,100737.33
2019-05-29T11:46:58.202Z,100735.08
2019-05-29T11:49:30.322Z,100733.34
2019-05-29T11:52:22.904Z,100746.25
2019-05-29T11:54:39.835Z,100727.27
2019-05-29T11:57:11.902Z,100730.17
2019-05-29T11:59:44.023Z,100723.70
2019-05-29T12:02:15.431Z,100719.54
2019-05-29T12:04:46.803Z,100718.56
2019-05-29T12:07:19.218Z,100712.25
2019-05-29T12:09:51.330Z,100705.14
2019-05-29T12:12:22.807Z,100707.22
2019-05-29T12:15:06.062Z,100690.48
2019-05-29T12:17:27.549Z,100682.88
2019-05-29T12:20:04.024Z,100696.34
2019-05-29T12:22:35.056Z,100715.69
2019-05-29T12:25:08.075Z,100696.64
2019-05-29T12:27:41.730Z,100695.56
2019-05-29T12:30:13.754Z,100697.72
2019-05-29T12:32:45.094Z,100691.70
2019-05-29T12:35:16.701Z,100688.59
2019-05-29T12:37:48.165Z,100704.38
2019-05-29T12:40:19.621Z,100691.55
2019-05-29T12:42:53.750Z,100692.70
2019-05-29T12:45:26.623Z,100686.19
2019-05-29T12:47:59.802Z,100671.59
2019-05-29T12:50:34.552Z,100669.69
2019-05-29T12:53:08.219Z,100644.33
2019-05-29T12:55:43.192Z,100650.59
2019-05-29T12:58:14.810Z,100645.85
2019-05-29T13:00:46.287Z,100646.69
2019-05-29T13:03:17.835Z,100651.95
2019-05-29T13:05:49.443Z,100651.42
2019-05-29T13:08:21.689Z,100645.47
2019-05-29T13:10:54.224Z,100634.84
2019-05-29T13:13:25.543Z,100652.94
2019-05-29T13:15:56.883Z,100656.92
2019-05-29T13:18:31.954Z,100664.03
2019-05-29T13:21:05.137Z,100674.91
2019-05-29T13:23:45.093Z,100687.80
2019-05-29T13:26:09.851Z,100690.30
2019-05-29T13:28:41.185Z,100708.20
2019-05-29T13:31:22.144Z,100705.05
2019-05-29T13:33:53.573Z,100704.34
2019-05-29T13:36:27.581Z,100716.03
2019-05-29T13:39:00.366Z,100704.94
2019-05-29T13:41:32.055Z,100703.18
2019-05-29T13:44:04.824Z,100714.17
2019-05-29T13:46:36.742Z,100718.28
2019-05-29T13:49:09.239Z,100717.78
2019-05-29T13:51:41.409Z,100725.63
2019-05-29T13:54:17.989Z,100726.59
2019-05-29T13:56:49.312Z,100725.00
2019-05-29T13:59:20.750Z,100733.30
2019-05-29T14:01:52.277Z,100739.25
2019-05-29T14:04:23.875Z,100734.11
2019-05-29T14:06:55.794Z,100730.72
2019-05-29T14:09:39.824Z,100737.23
2019-05-29T14:12:14.969Z,100733.57
2019-05-29T14:14:46.333Z,100725.67
2019-05-29T14:17:17.830Z,100730.30
2019-05-29T14:19:49.110Z,100737.12
2019-05-29T14:22:20.318Z,100731.27
2019-05-29T14:24:51.638Z,100730.45
2019-05-29T14:27:22.963Z,100729.54
2019-05-29T14:29:54.158Z,100728.30
2019-05-29T14:32:28.370Z,100727.27
2019-05-29T14:34:58.643Z,100726.68
2019-05-29T14:37:29.991Z,100715.94
2019-05-29T14:40:01.607Z,100719.98
2019-05-29T14:42:33.154Z,100720.32
2019-05-29T14:45:08.149Z,100723.98
2019-05-29T14:47:39.658Z,100716.59
2019-05-29T14:50:14.973Z,100722.38
2019-05-29T14:52:49.871Z,100723.30
2019-05-29T14:55:21.139Z,100726.27
2019-05-29T14:57:52.511Z,100723.75
2019-05-29T15:00:25.669Z,100729.34
2019-05-29T15:02:57.198Z,100734.26
2019-05-29T15:05:29.504Z,100736.09
2019-05-29T15:08:01.109Z,100735.25
2019-05-29T15:10:35.560Z,100737.70
2019-05-29T15:13:08.706Z,100747.84
2019-05-29T15:15:40.094Z,100747.12
2019-05-29T15:18:15.365Z,100758.21
2019-05-29T15:20:44.269Z,100751.33
2019-05-29T15:23:16.514Z,100762.02
2019-05-29T15:25:47.651Z,100764.27
2019-05-29T15:28:18.971Z,100766.44
2019-05-29T15:30:50.134Z,100755.47
2019-05-29T15:33:24.729Z,100762.77
2019-05-29T15:35:56.058Z,100773.91
2019-05-29T15:38:27.390Z,100771.23
2019-05-29T15:40:58.791Z,100763.88
2019-05-29T15:43:30.215Z,100759.30
2019-05-29T15:46:01.730Z,100759.67
2019-05-29T15:48:33.407Z,100755.84
2019-05-29T15:51:04.574Z,100747.38
2019-05-29T15:53:35.906Z,100755.11
2019-05-29T15:56:21.527Z,100755.64
2019-05-29T15:58:41.104Z,100758.66
2019-05-29T16:01:13.729Z,100754.46
2019-05-29T16:03:45.413Z,100755.05
2019-05-29T16:06:18.019Z,100755.53
2019-05-29T16:08:49.357Z,100750.56
2019-05-29T16:11:20.613Z,100753.84
2019-05-29T16:13:51.909Z,100752.52
2019-05-29T16:16:23.106Z,100752.92
2019-05-29T16:18:54.423Z,100753.44
2019-05-29T16:21:25.713Z,100756.31
2019-05-29T16:23:57.063Z,100756.52
2019-05-29T16:26:28.356Z,100753.20
2019-05-29T16:28:59.701Z,100753.45
2019-05-29T16:31:31.138Z,100753.78
2019-05-29T16:34:02.657Z,100754.69
2019-05-29T16:36:33.993Z,100753.79
2019-05-29T16:39:07.395Z,100748.14
2019-05-29T16:41:38.714Z,100743.72
2019-05-29T16:44:09.884Z,100751.64
2019-05-29T16:46:41.296Z,100748.89
2019-05-29T16:49:12.791Z,100751.30
2019-05-29T16:51:44.618Z,100750.72
2019-05-29T16:54:17.169Z,100752.09
2019-05-29T16:56:49.300Z,100749.80
2019-05-29T16:59:21.377Z,100744.38
2019-05-29T17:01:52.579Z,100750.04
2019-05-29T17:04:24.055Z,100745.53
2019-05-29T17:06:55.335Z,100750.33
2019-05-29T17:09:26.589Z,100754.78
2019-05-29T17:11:57.874Z,100751.50
2019-05-29T17:14:29.159Z,100749.53
2019-05-29T17:17:00.675Z,100748.57
2019-05-29T17:19:31.996Z,100752.66
2019-05-29T17:22:03.277Z,100750.84
2019-05-29T17:24:34.602Z,100756.42
2019-05-29T17:27:06.091Z,100755.08
2019-05-29T17:29:37.435Z,100752.93
2019-05-29T17:32:08.695Z,100756.57
2019-05-29T17:34:39.937Z,100758.69
2019-05-29T17:37:11.316Z,100763.69
2019-05-29T17:39:42.759Z,100760.90
2019-05-29T17:42:14.072Z,100765.11
2019-05-29T17:44:45.293Z,100772.67
2019-05-29T17:47:17.737Z,100769.81
2019-05-29T17:49:49.065Z,100775.84
2019-05-29T17:52:20.337Z,100777.61
2019-05-29T17:54:51.676Z,100780.72
2019-05-29T17:57:24.034Z,100781.31
2019-05-29T17:59:55.414Z,100788.23
2019-05-29T18:02:26.778Z,100789.69
2019-05-29T18:04:58.221Z,100795.39
2019-05-29T18:07:29.419Z,100794.81
2019-05-29T18:10:00.737Z,100802.99
2019-05-29T18:12:31.996Z,100801.45
2019-05-29T18:15:03.825Z,100803.11
2019-05-29T18:17:38.067Z,100804.10
2019-05-29T18:20:14.244Z,100809.03
2019-05-29T18:22:43.991Z,100802.56
2019-05-29T18:25:18.045Z,100802.20
2019-05-29T18:27:49.425Z,100801.70
2019-05-29T18:30:22.157Z,100812.48
2019-05-29T18:32:53.607Z,100805.45
2019-05-29T18:35:25.095Z,100814.38
2019-05-29T18:37:56.550Z,100811.97
2019-05-29T18:40:28.466Z,100823.73
2019-05-29T18:42:59.735Z,100827.63
2019-05-29T18:45:31.085Z,100828.68
2019-05-29T18:48:02.456Z,100828.13
2019-05-29T18:50:33.785Z,100827.28
2019-05-29T18:53:05.183Z,100827.02
2019-05-29T18:55:36.489Z,100830.56
2019-05-29T18:58:08.766Z,100823.45
2019-05-29T19:00:39.919Z,100828.48
2019-05-29T19:03:11.205Z,100832.77
2019-05-29T19:05:43.503Z,100834.01
2019-05-29T19:08:14.800Z,100836.90
2019-05-29T19:10:46.115Z,100831.73
2019-05-29T19:13:17.398Z,100830.52
2019-05-29T19:15:48.808Z,100831.33
2019-05-29T19:18:20.092Z,100834.57
2019-05-29T19:20:51.305Z,100829.77
2019-05-29T19:23:22.602Z,100828.53
2019-05-29T19:25:53.960Z,100826.17
2019-05-29T19:28:25.177Z,100827.19
2019-05-29T19:30:56.518Z,100821.25
2019-05-29T19:33:27.799Z,100819.52
2019-05-29T19:36:00.178Z,100826.17
2019-05-29T19:38:31.960Z,100827.73
2019-05-29T19:41:03.362Z,100827.17
2019-05-29T19:43:34.606Z,100821.08
2019-05-29T19:46:05.934Z,100821.95
2019-05-29T19:48:38.846Z,100823.37
2019-05-29T19:51:10.184Z,100823.73
2019-05-29T19:53:42.268Z,100817.19
2019-05-29T19:56:13.495Z,100821.77
2019-05-29T19:58:45.589Z,100820.71
2019-05-29T20:01:30.159Z,100823.59
2019-05-29T20:03:49.927Z,100817.48
2019-05-29T20:06:21.216Z,100818.02
2019-05-29T20:08:52.492Z,100811.42
2019-05-29T20:11:23.853Z,100809.24
2019-05-29T20:13:55.104Z,100807.25
2019-05-29T20:16:26.451Z,100816.27
2019-05-29T20:18:57.737Z,100813.90
2019-05-29T20:21:30.650Z,100810.88
2019-05-29T20:24:01.804Z,100818.78
2019-05-29T20:26:33.241Z,100811.33
2019-05-29T20:29:04.627Z,100807.73
2019-05-29T20:31:36.571Z,100817.16
2019-05-29T20:34:07.921Z,100815.49
2019-05-29T20:36:40.033Z,100819.14
2019-05-29T20:39:11.641Z,100818.91
2019-05-29T20:41:43.596Z,100813.83
2019-05-29T20:44:14.957Z,100811.91
2019-05-29T20:46:46.284Z,100814.82
2019-05-29T20:49:17.571Z,100812.94
2019-05-29T20:51:48.770Z,100816.91
2019-05-29T20:54:19.925Z,100814.59
2019-05-29T20:56:52.356Z,100805.77
2019-05-29T20:59:24.519Z,100817.27
2019-05-29T21:01:55.739Z,100813.39
2019-05-29T21:04:27.053Z,100817.33
2019-05-29T21:06:58.569Z,100815.57
2019-05-29T21:09:29.712Z,100808.92
2019-05-29T21:12:01.024Z,100813.83
2019-05-29T21:14:33.450Z,100811.03
2019-05-29T21:17:04.904Z,100812.39
2019-05-29T21:19:36.474Z,100810.85
2019-05-29T21:22:07.889Z,100817.89
2019-05-29T21:24:40.620Z,100818.27
2019-05-29T21:27:12.077Z,100812.64
2019-05-29T21:29:43.461Z,100815.20
2019-05-29T21:32:14.762Z,100814.59
2019-05-29T21:34:46.268Z,100822.68
2019-05-29T21:37:17.613Z,100815.30
2019-05-29T21:39:49.595Z,100806.74
2019-05-29T21:42:20.950Z,100811.41
2019-05-29T21:44:52.223Z,100813.02
2019-05-29T21:47:23.500Z,100820.97
2019-05-29T21:49:54.791Z,100832.25
2019-05-29T21:52:26.124Z,100830.42
2019-05-29T21:54:57.416Z,100840.51
2019-05-29T21:57:28.757Z,100831.41
2019-05-29T22:00:00.907Z,100841.90
2019-05-29T22:02:32.242Z,100834.88
2019-05-29T22:05:04.285Z,100837.37
2019-05-29T22:07:35.729Z,100833.80
2019-05-29T22:10:07.715Z,100828.29
2019-05-29T22:12:39.064Z,100828.78
2019-05-29T22:15:11.927Z,100831.38
2019-05-29T22:17:43.416Z,100830.66
2019-05-29T22:20:14.679Z,100830.16
2019-05-29T22:22:46.218Z,100831.25
2019-05-29T22:25:18.028Z,100834.73
2019-05-29T22:27:49.352Z,100836.78
2019-05-29T22:30:20.817Z,100835.72
2019-05-29T22:32:53.275Z,100833.80
2019-05-29T22:35:24.650Z,100835.72
2019-05-29T22:37:55.991Z,100844.25
2019-05-29T22:40:27.995Z,100841.05
2019-05-29T22:42:59.851Z,100838.45
2019-05-29T22:45:31.149Z,100837.67
2019-05-29T22:48:02.513Z,100837.89
2019-05-29T22:50:33.778Z,100842.81
2019-05-29T22:53:05.078Z,100838.55
2019-05-29T22:55:36.368Z,100840.22
2019-05-29T22:58:07.720Z,100841.10
2019-05-29T23:00:39.871Z,100847.74
2019-05-29T23:03:11.218Z,100853.09
2019-05-29T23:05:42.485Z,100845.05
2019-05-29T23:08:13.886Z,100849.05
2019-05-29T23:10:45.163Z,100846.57
2019-05-29T23:13:16.473Z,100847.09
2019-05-29T23:15:47.828Z,100850.20
2019-05-29T23:18:19.165Z,100846.36
2019-05-29T23:20:50.491Z,100840.23
2019-05-29T23:23:21.812Z,100849.63
2019-05-29T23:25:52.960Z,100850.84
2019-05-29T23:28:24.306Z,100842.47
2019-05-29T23:30:56.489Z,100840.80
2019-05-29T23:33:28.168Z,100844.10
2019-05-29T23:35:59.420Z,100848.95
2019-05-29T23:38:30.881Z,100848.66
2019-05-29T23:41:03.625Z,100847.27
2019-05-29T23:43:35.095Z,100847.45
2019-05-29T23:46:06.410Z,100841.13
2019-05-29T23:48:37.725Z,100848.74
2019-05-29T23:51:09.001Z,100848.03
2019-05-29T23:53:40.327Z,100844.88
2019-05-29T23:56:11.552Z,100846.43
2019-05-29T23:58:42.864Z,100845.30
